Phyllis E — WDH6692 — position and weather

sailwx.info

Track history (hours):
 
Tides and Currents Weather Stations Pressure Air Temp Water Temp Dewpoint Dewpoint Depression Visibility Wind Speed Wind Dir Waves Ship Positions

Phyllis E

Owner: Echo Towing Service, Inc., Highlands, TX. More information available from US FCC via Universal Licensing System and Coast Guard Vessel Documentation Center.

Last reported at 2018-Apr-19 21:49 UTC. Time now 2018-Apr-20 07:02 UTC.
Position N 29°27' W 094°50'.

; draft 2.6 m.

Type: Towing. MMSI: 367640680.

Date/timePositionNaut miles runAvg speedWind from/ knotsBaromVisibWave heightAir tempDewpointWater temp
2018-Apr-19 21:49N 29°27' W 094°50'2 6.8
2018-Apr-19 21:30N 29°29' W 094°51'3 6.9
2018-Apr-19 21:00N 29°32' W 094°53'3 6.9
2018-Apr-19 20:30N 29°34' W 094°56'3 6.6
2018-Apr-19 20:00N 29°37' W 094°58'3 6.9
2018-Apr-19 19:30N 29°41' W 094°59'3 6.7
2018-Apr-19 19:00N 29°43' W 095°01'3 6.8
2018-Apr-19 18:30N 29°45' W 095°04'3 2.9
2018-Apr-19 17:38N 29°46' W 095°07'0 0.2
2018-Apr-19 17:28N 29°46' W 095°07'1 2.9
2018-Apr-19 17:00N 29°45' W 095°06'1 2.4
2018-Apr-19 16:30N 29°46' W 095°05'1 1.4
2018-Apr-19 16:00N 29°46' W 095°05'3 6.1
2018-Apr-19 15:30N 29°44' W 095°08'3 1.1
2018-Apr-19 13:08N 29°45' W 095°11'2 6.6
2018-Apr-19 12:53N 29°44' W 095°09'4 6.0
2018-Apr-19 12:16N 29°46' W 095°05'0 0.0
2018-Apr-19 08:56N 29°46' W 095°05'2 2.9
2018-Apr-19 08:14N 29°45' W 095°04'1 5.4
2018-Apr-19 08:00N 29°44' W 095°03'2 4.6
2018-Apr-19 07:30N 29°42' W 095°01'2 4.7
2018-Apr-19 07:00N 29°41' W 094°59'3 5.6
2018-Apr-19 06:30N 29°38' W 094°58'2 4.4
2018-Apr-19 06:00N 29°37' W 094°60'1 2.9
2018-Apr-19 05:30N 29°37' W 095°01'0 0.0
2018-Apr-19 05:00N 29°37' W 095°01'0 0.0
2018-Apr-19 04:30N 29°37' W 095°01'0 0.0
2018-Apr-19 04:00N 29°37' W 095°01'0 0.0
2018-Apr-19 03:30N 29°37' W 095°01'0 0.0
2018-Apr-19 03:00N 29°37' W 095°01'0 0.0
2018-Apr-19 02:30N 29°37' W 095°01'0 0.0
2018-Apr-19 02:00N 29°37' W 095°01'0 0.0
2018-Apr-19 01:30N 29°37' W 095°01'0 0.0
2018-Apr-19 01:00N 29°37' W 095°01'0 0.0
2018-Apr-19 00:30N 29°37' W 095°01'0 0.0
2018-Apr-19 00:00N 29°37' W 095°01'0 0.0
2018-Apr-18 23:30N 29°37' W 095°01'0 0.0
2018-Apr-18 23:00N 29°37' W 095°01'0 0.0
2018-Apr-18 22:30N 29°37' W 095°01'0 0.0
2018-Apr-18 22:00N 29°37' W 095°01'0 0.0
2018-Apr-18 21:30N 29°37' W 095°01'0 0.0
2018-Apr-18 21:00N 29°37' W 095°01'0 0.0
2018-Apr-18 20:30N 29°37' W 095°01'0 0.0
2018-Apr-18 20:00N 29°37' W 095°01'0 0.0
2018-Apr-18 19:30N 29°37' W 095°01'0 0.0
2018-Apr-18 19:00N 29°37' W 095°01'0 0.0
2018-Apr-18 18:30N 29°37' W 095°01'0 0.0
2018-Apr-18 18:00N 29°37' W 095°01'0 0.0
2018-Apr-18 17:30N 29°37' W 095°01'0 0.0
2018-Apr-18 17:00N 29°37' W 095°01'0 0.0
2018-Apr-18 16:30N 29°37' W 095°01'0 0.0
2018-Apr-18 16:01N 29°37' W 095°01'0 0.0
2018-Apr-18 15:31N 29°37' W 095°01'0 0.8
2018-Apr-18 15:00N 29°37' W 095°01'3 5.5
2018-Apr-18 14:31N 29°37' W 094°58'2 4.8
2018-Apr-18 14:01N 29°39' W 094°58'3 6.1
2018-Apr-18 13:30N 29°42' W 095°00'2 4.8
2018-Apr-18 13:00N 29°44' W 095°02'3 5.8
2018-Apr-18 12:30N 29°46' W 095°04'2 3.5
2018-Apr-18 12:00N 29°47' W 095°06'2 0.9
2018-Apr-18 10:17N 29°47' W 095°04'2 5.3
2018-Apr-18 09:58N 29°46' W 095°05'1 0.4
2018-Apr-18 07:09N 29°45' W 095°06'0 0.0
2018-Apr-18 06:52N 29°45' W 095°06'0 0.0
2018-Apr-18 04:59N 29°45' W 095°06'0 0.0
2018-Apr-18 04:20N 29°45' W 095°06'0 0.0
2018-Apr-18 03:59N 29°45' W 095°06'0 0.0
2018-Apr-18 03:08N 29°45' W 095°06'0 0.0
2018-Apr-18 03:00N 29°45' W 095°06'0 0.0
2018-Apr-18 02:24N 29°45' W 095°06'0 0.0
2018-Apr-18 01:56N 29°45' W 095°06'0 0.0
2018-Apr-18 01:19N 29°45' W 095°06'0 0.0
2018-Apr-18 01:00N 29°45' W 095°06'0 0.1
2018-Apr-17 21:16N 29°45' W 095°06'1 2.8
2018-Apr-17 20:58N 29°46' W 095°06'1 2.0
2018-Apr-17 20:30N 29°46' W 095°07'0 0.8
2018-Apr-17 20:01N 29°46' W 095°07'0 0.0
2018-Apr-17 19:31N 29°46' W 095°07'1 1.0
2018-Apr-17 19:00N 29°46' W 095°06'0 0.5
2018-Apr-17 18:31N 29°46' W 095°06'0 0.1
2018-Apr-17 18:00N 29°46' W 095°06'0 0.0
2018-Apr-17 17:30N 29°46' W 095°06'1 1.4
2018-Apr-17 17:00N 29°46' W 095°05'3 5.7
2018-Apr-17 16:31N 29°44' W 095°03'2 4.3
2018-Apr-17 16:01N 29°43' W 095°01'3 6.3
2018-Apr-17 15:30N 29°40' W 094°59'3 7.0
2018-Apr-17 15:00N 29°37' W 094°57'3 5.5
2018-Apr-17 14:30N 29°37' W 095°01'1 1.2
2018-Apr-17 14:01N 29°37' W 095°01'0 0.0
2018-Apr-17 13:30N 29°37' W 095°01'0 0.0
2018-Apr-17 13:01N 29°37' W 095°01'0 0.0
2018-Apr-17 12:30N 29°37' W 095°01'0 0.0
2018-Apr-17 11:59N 29°37' W 095°01'0 0.0
2018-Apr-17 11:30N 29°37' W 095°01'0 0.0
2018-Apr-17 11:00N 29°37' W 095°01'0 0.0
2018-Apr-17 10:30N 29°37' W 095°01'0 0.0
2018-Apr-17 10:00N 29°37' W 095°01'0 0.0
2018-Apr-17 09:30N 29°37' W 095°01'0 0.0
2018-Apr-17 09:00N 29°37' W 095°01'0 0.0
2018-Apr-17 08:30N 29°37' W 095°01'0 0.0
2018-Apr-17 08:00N 29°37' W 095°01'0 0.0
2018-Apr-17 07:31N 29°37' W 095°01'0 0.0
2018-Apr-17 06:58N 29°37' W 095°01'0 0.0
2018-Apr-17 06:31N 29°37' W 095°01'0 0.0
2018-Apr-17 06:00N 29°37' W 095°01'0 0.0
2018-Apr-17 05:31N 29°37' W 095°01'0 0.0
2018-Apr-17 04:59N 29°37' W 095°01'0 0.0
2018-Apr-17 04:29N 29°37' W 095°01'0 0.0
2018-Apr-17 04:00N 29°37' W 095°01'0 0.0
2018-Apr-17 03:30N 29°37' W 095°01'0 0.0
2018-Apr-17 03:01N 29°37' W 095°01'0 0.0
2018-Apr-17 02:30N 29°37' W 095°01'0 0.0
2018-Apr-17 02:00N 29°37' W 095°01'0 0.0
2018-Apr-17 01:31N 29°37' W 095°01'0 0.0
2018-Apr-17 01:01N 29°37' W 095°01'0 0.0
2018-Apr-17 00:30N 29°37' W 095°01'0 0.0
2018-Apr-17 00:00N 29°37' W 095°01'0 0.0
2018-Apr-16 23:30N 29°37' W 095°01'0 0.0
2018-Apr-16 23:00N 29°37' W 095°01'0 0.0
2018-Apr-16 22:31N 29°37' W 095°01'0 0.0
2018-Apr-16 22:01N 29°37' W 095°01'0 0.0
2018-Apr-16 21:30N 29°37' W 095°01'0 0.0
2018-Apr-16 21:01N 29°37' W 095°01'0 0.0
2018-Apr-16 20:31N 29°37' W 095°01'0 0.9
2018-Apr-16 20:00N 29°37' W 095°01'3 5.6
2018-Apr-16 19:30N 29°37' W 094°58'3 5.4
2018-Apr-16 19:00N 29°40' W 094°58'3 5.7
2018-Apr-16 18:30N 29°42' W 095°00'2 4.6
2018-Apr-16 18:01N 29°44' W 095°02'3 5.6
2018-Apr-16 17:31N 29°46' W 095°04'1 1.8
2018-Apr-16 16:58N 29°46' W 095°05'0 0.1
2018-Apr-16 16:30N 29°46' W 095°05'0 0.0
2018-Apr-16 16:00N 29°46' W 095°05'0 0.0
2018-Apr-16 15:30N 29°46' W 095°05'1 1.0
2018-Apr-16 14:57N 29°46' W 095°06'0 0.3
2018-Apr-16 13:38N 29°46' W 095°06'1 4.0
2018-Apr-16 13:30N 29°45' W 095°06'1 2.5
2018-Apr-16 12:59N 29°44' W 095°07'3 4.2
2018-Apr-16 12:13N 29°45' W 095°10'0 1.3
2018-Apr-16 11:59N 29°45' W 095°10'3 6.4
2018-Apr-16 11:30N 29°44' W 095°07'1 2.4
2018-Apr-16 11:00N 29°46' W 095°06'0 0.0
2018-Apr-16 10:31N 29°46' W 095°06'0 0.0
2018-Apr-16 10:00N 29°46' W 095°06'0 0.0
2018-Apr-16 09:24N 29°46' W 095°06'0 0.0
2018-Apr-16 08:59N 29°46' W 095°06'0 0.0
2018-Apr-16 07:06N 29°46' W 095°06'0 0.0
2018-Apr-16 06:55N 29°46' W 095°06'0 0.0
2018-Apr-16 06:21N 29°46' W 095°06'0 0.0
2018-Apr-16 05:19N 29°46' W 095°06'1 0.6
2018-Apr-16 04:15N 29°45' W 095°06'2 4.8
2018-Apr-16 03:43N 29°44' W 095°03'2 6.4
2018-Apr-16 03:29N 29°44' W 095°02'3 5.6
2018-Apr-16 03:00N 29°42' W 094°59'3 6.6
2018-Apr-16 02:30N 29°39' W 094°58'3 6.1
2018-Apr-16 02:00N 29°36' W 094°57'4 7.2
2018-Apr-16 01:30N 29°33' W 094°54'3 6.8
2018-Apr-16 00:59N 29°30' W 094°52'4 7.0
2018-Apr-16 00:30N 29°27' W 094°50'5 0.4
2018-Apr-15 10:32N 29°22' W 094°47'0 4.4
2018-Apr-15 10:26N 29°22' W 094°47'1 3.0
2018-Apr-15 10:00N 29°23' W 094°49'2 3.8
2018-Apr-15 09:30N 29°25' W 094°49'2 3.5
2018-Apr-15 09:00N 29°26' W 094°50'2 4.2
2018-Apr-15 08:30N 29°28' W 094°51'2 4.6
2018-Apr-15 08:00N 29°30' W 094°52'2 4.6
2018-Apr-15 07:30N 29°32' W 094°54'2 4.6
2018-Apr-15 07:00N 29°34' W 094°55'2 4.7
2018-Apr-15 06:30N 29°36' W 094°57'2 4.9
2018-Apr-15 06:00N 29°38' W 094°58'3 5.2
2018-Apr-15 05:30N 29°41' W 094°59'3 5.2
2018-Apr-15 05:00N 29°42' W 095°01'2 4.4
2018-Apr-15 04:30N 29°44' W 095°03'2 3.7
2018-Apr-15 03:59N 29°45' W 095°04'2 3.4
2018-Apr-15 03:28N 29°45' W 095°06'0 0.0
2018-Apr-15 02:59N 29°45' W 095°06'0 0.0
2018-Apr-15 02:30N 29°45' W 095°06'1 1.7
2018-Apr-15 01:59N 29°45' W 095°06'1 1.1
2018-Apr-15 01:23N 29°46' W 095°05'0 0.0
2018-Apr-15 00:59N 29°46' W 095°05'0 0.0
2018-Apr-15 00:29N 29°46' W 095°05'0 0.0
2018-Apr-15 00:00N 29°46' W 095°05'0 0.0
2018-Apr-14 23:30N 29°46' W 095°05'0 0.1
2018-Apr-14 22:55N 29°46' W 095°05'0 0.1
2018-Apr-14 22:30N 29°46' W 095°05'0 0.0
2018-Apr-14 22:00N 29°46' W 095°05'0 0.0
2018-Apr-14 21:30N 29°46' W 095°05'0 0.0
2018-Apr-14 20:58N 29°46' W 095°05'0 0.0
2018-Apr-14 20:30N 29°46' W 095°05'0 0.0
2018-Apr-14 20:00N 29°46' W 095°05'1 2.0
2018-Apr-14 19:16N 29°45' W 095°06'0 0.0
2018-Apr-14 18:56N 29°45' W 095°06'0 0.1
2018-Apr-14 18:30N 29°45' W 095°06'1 2.4
2018-Apr-14 17:58N 29°46' W 095°07'1 0.1
2018-Apr-14 12:25N 29°46' W 095°06'3 3.8
2018-Apr-14 11:45N 29°47' W 095°04'2 6.7
2018-Apr-14 11:30N 29°46' W 095°05'0 0.5
2018-Apr-14 10:57N 29°46' W 095°05'0 0.0
2018-Apr-14 10:28N 29°46' W 095°05'0 0.0
2018-Apr-14 10:00N 29°46' W 095°05'0 0.0
2018-Apr-14 09:30N 29°46' W 095°05'0 0.0
2018-Apr-14 08:59N 29°46' W 095°05'0 0.0
2018-Apr-14 08:25N 29°46' W 095°05'0 0.0
2018-Apr-14 07:56N 29°46' W 095°05'0 0.0
2018-Apr-14 07:29N 29°46' W 095°05'0 0.0
2018-Apr-14 04:24N 29°46' W 095°05'1 0.2
2018-Apr-14 00:10N 29°45' W 095°06'1 6.1
2018-Apr-14 00:00N 29°46' W 095°04'3 7.0
2018-Apr-13 23:30N 29°44' W 095°01'3 6.7
2018-Apr-13 23:00N 29°41' W 094°59'3 5.3
2018-Apr-13 22:28N 29°41' W 094°55'1 1.6
2018-Apr-13 22:00N 29°42' W 094°55'0 0.0
2018-Apr-13 19:46N 29°42' W 094°55'0 1.1
2018-Apr-13 19:30N 29°42' W 094°55'1 1.4
2018-Apr-13 19:00N 29°42' W 094°56'0 0.1
2018-Apr-13 18:29N 29°42' W 094°56'1 1.7
2018-Apr-13 17:56N 29°42' W 094°55'2 3.7
2018-Apr-13 17:30N 29°40' W 094°56'2 4.8
2018-Apr-13 17:00N 29°41' W 094°59'3 5.8
2018-Apr-13 16:28N 29°43' W 095°01'3 6.2
2018-Apr-13 15:58N 29°45' W 095°04'1 2.9
2018-Apr-13 15:30N 29°46' W 095°06'1 1.4
2018-Apr-13 15:00N 29°46' W 095°06'0 0.0
2018-Apr-13 14:30N 29°46' W 095°06'1 1.4
2018-Apr-13 13:54N 29°46' W 095°07'0 0.7
2018-Apr-13 13:27N 29°46' W 095°07'1 2.0
2018-Apr-13 13:00N 29°45' W 095°06'1 0.2
2018-Apr-13 09:59N 29°46' W 095°05'1 0.3
2018-Apr-13 07:30N 29°46' W 095°06'0 0.0
2018-Apr-13 06:52N 29°46' W 095°06'0 0.0
2018-Apr-13 06:28N 29°46' W 095°06'0 0.0
2018-Apr-13 05:59N 29°46' W 095°06'0 0.0
2018-Apr-13 05:30N 29°46' W 095°06'0 0.0
2018-Apr-13 04:59N 29°46' W 095°06'0 0.0
2018-Apr-13 04:30N 29°46' W 095°06'0 0.0
2018-Apr-13 03:59N 29°46' W 095°06'1 1.2
2018-Apr-13 03:30N 29°45' W 095°06'3 6.2
2018-Apr-13 02:59N 29°44' W 095°09'2 3.2
2018-Apr-13 02:29N 29°45' W 095°11'1 1.2
2018-Apr-13 01:59N 29°45' W 095°10'4 5.0
2018-Apr-13 01:15N 29°45' W 095°06'0 1.3
2018-Apr-13 00:53N 29°46' W 095°06'0 0.2
2018-Apr-13 00:30N 29°46' W 095°06'1 1.2
2018-Apr-12 23:50N 29°46' W 095°05'0 0.0
2018-Apr-12 23:23N 29°46' W 095°05'1 1.5
2018-Apr-12 22:49N 29°46' W 095°06'0 0.1
2018-Apr-12 17:10N 29°46' W 095°07'0 0.0
2018-Apr-12 16:55N 29°46' W 095°07'0 0.0
2018-Apr-12 16:23N 29°46' W 095°07'0 0.0
2018-Apr-12 14:55N 29°46' W 095°07'1 2.6
2018-Apr-12 14:28N 29°46' W 095°05'0 0.5
2018-Apr-12 14:00N 29°46' W 095°05'1 1.3
2018-Apr-12 13:30N 29°45' W 095°06'0 0.8
2018-Apr-12 12:55N 29°46' W 095°06'0 0.0
2018-Apr-12 12:26N 29°46' W 095°06'0 0.0
2018-Apr-12 11:57N 29°46' W 095°06'0 0.2
2018-Apr-12 11:29N 29°46' W 095°06'0 0.0
2018-Apr-12 10:59N 29°46' W 095°06'1 1.7
2018-Apr-12 10:29N 29°46' W 095°05'0 0.3
2018-Apr-12 09:49N 29°46' W 095°05'0 0.0
2018-Apr-12 09:31N 29°46' W 095°05'0 0.0
2018-Apr-12 08:59N 29°46' W 095°05'0 0.0
2018-Apr-12 08:28N 29°46' W 095°05'0 0.0
2018-Apr-12 08:00N 29°46' W 095°05'2 4.9
2018-Apr-12 07:30N 29°44' W 095°07'3 6.1
2018-Apr-12 07:00N 29°45' W 095°11'1 1.3
2018-Apr-12 06:30N 29°45' W 095°11'0 0.0
2018-Apr-12 06:01N 29°45' W 095°11'2 4.4
2018-Apr-12 05:31N 29°44' W 095°09'3 6.0
2018-Apr-12 05:01N 29°45' W 095°06'1 2.7
2018-Apr-12 04:31N 29°46' W 095°07'0 0.4
2018-Apr-12 03:56N 29°46' W 095°07'1 2.5
2018-Apr-12 03:30N 29°45' W 095°06'1 1.5
2018-Apr-12 02:59N 29°45' W 095°06'1 1.1
2018-Apr-12 02:30N 29°46' W 095°05'0 0.0
2018-Apr-12 01:57N 29°46' W 095°05'3 6.0
2018-Apr-12 01:30N 29°44' W 095°07'3 5.6
2018-Apr-12 01:00N 29°45' W 095°10'0 0.1
2018-Apr-12 00:25N 29°45' W 095°10'0 1.1
2018-Apr-11 23:59N 29°45' W 095°10'2 3.6
2018-Apr-11 23:27N 29°44' W 095°08'2 3.9
2018-Apr-11 22:56N 29°45' W 095°06'1 1.5
2018-Apr-11 22:29N 29°46' W 095°06'1 1.3
2018-Apr-11 21:50N 29°46' W 095°07'0 0.7
2018-Apr-11 21:27N 29°46' W 095°07'0 0.1
2018-Apr-11 20:58N 29°46' W 095°07'1 2.3
2018-Apr-11 20:30N 29°45' W 095°06'3 5.1
2018-Apr-11 20:01N 29°44' W 095°03'3 5.7
2018-Apr-11 19:31N 29°42' W 095°01'3 5.7
2018-Apr-11 19:00N 29°41' W 094°58'2 4.0
2018-Apr-11 18:31N 29°41' W 094°55'1 2.2
2018-Apr-11 18:00N 29°42' W 094°56'1 1.3
2018-Apr-11 17:22N 29°43' W 094°56'1 1.8
2018-Apr-11 16:58N 29°43' W 094°57'0 0.7
2018-Apr-11 16:31N 29°43' W 094°57'1 2.1
2018-Apr-11 16:00N 29°42' W 094°56'1 1.5
2018-Apr-11 15:29N 29°41' W 094°55'1 2.9
2018-Apr-11 15:01N 29°41' W 094°57'2 4.4
2018-Apr-11 14:31N 29°41' W 094°59'2 4.9
2018-Apr-11 14:00N 29°43' W 095°01'2 4.4
2018-Apr-11 13:31N 29°44' W 095°03'2 4.6
2018-Apr-11 13:00N 29°46' W 095°05'0 0.9
2018-Apr-11 12:30N 29°45' W 095°06'3 4.8
2018-Apr-11 11:58N 29°48' W 095°04'0 0.2
2018-Apr-11 10:14N 29°47' W 095°04'1 6.2
2018-Apr-11 10:00N 29°46' W 095°05'1 1.0
2018-Apr-11 09:26N 29°46' W 095°05'0 0.0
2018-Apr-11 09:00N 29°46' W 095°05'0 0.0
2018-Apr-11 08:29N 29°46' W 095°05'0 0.0
2018-Apr-11 07:49N 29°46' W 095°05'0 0.0
2018-Apr-11 07:29N 29°46' W 095°05'0 0.0
2018-Apr-11 07:00N 29°46' W 095°05'0 0.0
2018-Apr-11 06:25N 29°46' W 095°05'0 0.0
2018-Apr-11 05:56N 29°46' W 095°05'1 1.2
2018-Apr-11 05:30N 29°46' W 095°05'1 2.4
2018-Apr-11 05:00N 29°46' W 095°06'0 0.2
2018-Apr-11 02:02N 29°45' W 095°06'1 5.5
2018-Apr-11 01:54N 29°46' W 095°05'3 6.3
2018-Apr-11 01:29N 29°44' W 095°03'3 5.6
2018-Apr-11 01:00N 29°42' W 095°01'3 5.7
2018-Apr-11 00:30N 29°41' W 094°58'2 3.4
2018-Apr-11 00:00N 29°41' W 094°56'1 2.9
2018-Apr-10 23:30N 29°42' W 094°55'1 2.9
2018-Apr-10 23:01N 29°43' W 094°57'3 4.3
2018-Apr-10 22:18N 29°46' W 094°55'0 0.0
2018-Apr-10 17:43N 29°46' W 094°55'0 0.0
2018-Apr-10 17:18N 29°46' W 094°55'0 0.0
2018-Apr-10 14:23N 29°46' W 094°55'0 1.0
2018-Apr-10 13:54N 29°45' W 094°55'1 2.4
2018-Apr-10 13:27N 29°44' W 094°56'2 3.6
2018-Apr-10 13:00N 29°43' W 094°57'1 2.3
2018-Apr-10 12:29N 29°42' W 094°56'1 1.1
2018-Apr-10 11:59N 29°42' W 094°55'2 3.2
2018-Apr-10 11:30N 29°40' W 094°56'2 3.9
2018-Apr-10 11:00N 29°41' W 094°58'2 4.2
2018-Apr-10 10:30N 29°42' W 095°00'2 4.2
2018-Apr-10 09:59N 29°44' W 095°02'3 3.9
2018-Apr-10 09:20N 29°45' W 095°04'1 3.9
2018-Apr-10 09:00N 29°45' W 095°05'0 0.2
2018-Apr-10 07:32N 29°45' W 095°06'1 4.2
2018-Apr-10 07:24N 29°45' W 095°06'1 0.3
2018-Apr-10 03:20N 29°46' W 095°05'0 0.0
2018-Apr-10 02:57N 29°46' W 095°05'0 0.0
2018-Apr-10 02:29N 29°46' W 095°05'0 0.0
2018-Apr-10 02:00N 29°46' W 095°05'0 0.0
2018-Apr-10 01:29N 29°46' W 095°05'0 0.0
2018-Apr-10 00:57N 29°46' W 095°05'0 0.0
2018-Apr-10 00:30N 29°46' W 095°05'0 0.0
2018-Apr-10 00:00N 29°46' W 095°05'0 0.3
2018-Apr-09 23:28N 29°46' W 095°05'2 2.7
2018-Apr-09 22:40N 29°48' W 095°04'1 3.6
2018-Apr-09 22:29N 29°47' W 095°04'1 2.8
2018-Apr-09 21:59N 29°46' W 095°05'  
Track history (hours):
 
Tides and Currents Weather Stations Pressure Air Temp Water Temp Dewpoint Dewpoint Depression Visibility Wind Speed Wind Dir Waves Ship Positions

Phyllis E

Owner: Echo Towing Service, Inc., Highlands, TX. More information available from US FCC via Universal Licensing System and Coast Guard Vessel Documentation Center.

Last reported at 2018-Apr-19 21:49 UTC. Time now 2018-Apr-20 07:02 UTC.
Position N 29°27' W 094°50'.

; draft 2.6 m.

Type: Towing. MMSI: 367640680.

Date/timePositionNaut miles runAvg speedWind from/ knotsBaromVisibWave heightAir tempDewpointWater temp
2018-Apr-19 21:49N 29°27' W 094°50'2 6.8
2018-Apr-19 21:30N 29°29' W 094°51'3 6.9
2018-Apr-19 21:00N 29°32' W 094°53'3 6.9
2018-Apr-19 20:30N 29°34' W 094°56'3 6.6
2018-Apr-19 20:00N 29°37' W 094°58'3 6.9
2018-Apr-19 19:30N 29°41' W 094°59'3 6.7
2018-Apr-19 19:00N 29°43' W 095°01'3 6.8
2018-Apr-19 18:30N 29°45' W 095°04'3 2.9
2018-Apr-19 17:38N 29°46' W 095°07'0 0.2
2018-Apr-19 17:28N 29°46' W 095°07'1 2.9
2018-Apr-19 17:00N 29°45' W 095°06'1 2.4
2018-Apr-19 16:30N 29°46' W 095°05'1 1.4
2018-Apr-19 16:00N 29°46' W 095°05'3 6.1
2018-Apr-19 15:30N 29°44' W 095°08'3 1.1
2018-Apr-19 13:08N 29°45' W 095°11'2 6.6
2018-Apr-19 12:53N 29°44' W 095°09'4 6.0
2018-Apr-19 12:16N 29°46' W 095°05'0 0.0
2018-Apr-19 08:56N 29°46' W 095°05'2 2.9
2018-Apr-19 08:14N 29°45' W 095°04'1 5.4
2018-Apr-19 08:00N 29°44' W 095°03'2 4.6
2018-Apr-19 07:30N 29°42' W 095°01'2 4.7
2018-Apr-19 07:00N 29°41' W 094°59'3 5.6
2018-Apr-19 06:30N 29°38' W 094°58'2 4.4
2018-Apr-19 06:00N 29°37' W 094°60'1 2.9
2018-Apr-19 05:30N 29°37' W 095°01'0 0.0
2018-Apr-19 05:00N 29°37' W 095°01'0 0.0
2018-Apr-19 04:30N 29°37' W 095°01'0 0.0
2018-Apr-19 04:00N 29°37' W 095°01'0 0.0
2018-Apr-19 03:30N 29°37' W 095°01'0 0.0
2018-Apr-19 03:00N 29°37' W 095°01'0 0.0
2018-Apr-19 02:30N 29°37' W 095°01'0 0.0
2018-Apr-19 02:00N 29°37' W 095°01'0 0.0
2018-Apr-19 01:30N 29°37' W 095°01'0 0.0
2018-Apr-19 01:00N 29°37' W 095°01'0 0.0
2018-Apr-19 00:30N 29°37' W 095°01'0 0.0
2018-Apr-19 00:00N 29°37' W 095°01'0 0.0
2018-Apr-18 23:30N 29°37' W 095°01'0 0.0
2018-Apr-18 23:00N 29°37' W 095°01'0 0.0
2018-Apr-18 22:30N 29°37' W 095°01'0 0.0
2018-Apr-18 22:00N 29°37' W 095°01'0 0.0
2018-Apr-18 21:30N 29°37' W 095°01'0 0.0
2018-Apr-18 21:00N 29°37' W 095°01'0 0.0
2018-Apr-18 20:30N 29°37' W 095°01'0 0.0
2018-Apr-18 20:00N 29°37' W 095°01'0 0.0
2018-Apr-18 19:30N 29°37' W 095°01'0 0.0
2018-Apr-18 19:00N 29°37' W 095°01'0 0.0
2018-Apr-18 18:30N 29°37' W 095°01'0 0.0
2018-Apr-18 18:00N 29°37' W 095°01'0 0.0
2018-Apr-18 17:30N 29°37' W 095°01'0 0.0
2018-Apr-18 17:00N 29°37' W 095°01'0 0.0
2018-Apr-18 16:30N 29°37' W 095°01'0 0.0
2018-Apr-18 16:01N 29°37' W 095°01'0 0.0
2018-Apr-18 15:31N 29°37' W 095°01'0 0.8
2018-Apr-18 15:00N 29°37' W 095°01'3 5.5
2018-Apr-18 14:31N 29°37' W 094°58'2 4.8
2018-Apr-18 14:01N 29°39' W 094°58'3 6.1
2018-Apr-18 13:30N 29°42' W 095°00'2 4.8
2018-Apr-18 13:00N 29°44' W 095°02'3 5.8
2018-Apr-18 12:30N 29°46' W 095°04'2 3.5
2018-Apr-18 12:00N 29°47' W 095°06'2 0.9
2018-Apr-18 10:17N 29°47' W 095°04'2 5.3
2018-Apr-18 09:58N 29°46' W 095°05'1 0.4
2018-Apr-18 07:09N 29°45' W 095°06'0 0.0
2018-Apr-18 06:52N 29°45' W 095°06'0 0.0
2018-Apr-18 04:59N 29°45' W 095°06'0 0.0
2018-Apr-18 04:20N 29°45' W 095°06'0 0.0
2018-Apr-18 03:59N 29°45' W 095°06'0 0.0
2018-Apr-18 03:08N 29°45' W 095°06'0 0.0
2018-Apr-18 03:00N 29°45' W 095°06'0 0.0
2018-Apr-18 02:24N 29°45' W 095°06'0 0.0
2018-Apr-18 01:56N 29°45' W 095°06'0 0.0
2018-Apr-18 01:19N 29°45' W 095°06'0 0.0
2018-Apr-18 01:00N 29°45' W 095°06'0 0.1
2018-Apr-17 21:16N 29°45' W 095°06'1 2.8
2018-Apr-17 20:58N 29°46' W 095°06'1 2.0
2018-Apr-17 20:30N 29°46' W 095°07'0 0.8
2018-Apr-17 20:01N 29°46' W 095°07'0 0.0
2018-Apr-17 19:31N 29°46' W 095°07'1 1.0
2018-Apr-17 19:00N 29°46' W 095°06'0 0.5
2018-Apr-17 18:31N 29°46' W 095°06'0 0.1
2018-Apr-17 18:00N 29°46' W 095°06'0 0.0
2018-Apr-17 17:30N 29°46' W 095°06'1 1.4
2018-Apr-17 17:00N 29°46' W 095°05'3 5.7
2018-Apr-17 16:31N 29°44' W 095°03'2 4.3
2018-Apr-17 16:01N 29°43' W 095°01'3 6.3
2018-Apr-17 15:30N 29°40' W 094°59'3 7.0
2018-Apr-17 15:00N 29°37' W 094°57'3 5.5
2018-Apr-17 14:30N 29°37' W 095°01'1 1.2
2018-Apr-17 14:01N 29°37' W 095°01'0 0.0
2018-Apr-17 13:30N 29°37' W 095°01'0 0.0
2018-Apr-17 13:01N 29°37' W 095°01'0 0.0
2018-Apr-17 12:30N 29°37' W 095°01'0 0.0
2018-Apr-17 11:59N 29°37' W 095°01'0 0.0
2018-Apr-17 11:30N 29°37' W 095°01'0 0.0
2018-Apr-17 11:00N 29°37' W 095°01'0 0.0
2018-Apr-17 10:30N 29°37' W 095°01'0 0.0
2018-Apr-17 10:00N 29°37' W 095°01'0 0.0
2018-Apr-17 09:30N 29°37' W 095°01'0 0.0
2018-Apr-17 09:00N 29°37' W 095°01'0 0.0
2018-Apr-17 08:30N 29°37' W 095°01'0 0.0
2018-Apr-17 08:00N 29°37' W 095°01'0 0.0
2018-Apr-17 07:31N 29°37' W 095°01'0 0.0
2018-Apr-17 06:58N 29°37' W 095°01'0 0.0
2018-Apr-17 06:31N 29°37' W 095°01'0 0.0
2018-Apr-17 06:00N 29°37' W 095°01'0 0.0
2018-Apr-17 05:31N 29°37' W 095°01'0 0.0
2018-Apr-17 04:59N 29°37' W 095°01'0 0.0
2018-Apr-17 04:29N 29°37' W 095°01'0 0.0
2018-Apr-17 04:00N 29°37' W 095°01'0 0.0
2018-Apr-17 03:30N 29°37' W 095°01'0 0.0
2018-Apr-17 03:01N 29°37' W 095°01'0 0.0
2018-Apr-17 02:30N 29°37' W 095°01'0 0.0
2018-Apr-17 02:00N 29°37' W 095°01'0 0.0
2018-Apr-17 01:31N 29°37' W 095°01'0 0.0
2018-Apr-17 01:01N 29°37' W 095°01'0 0.0
2018-Apr-17 00:30N 29°37' W 095°01'0 0.0
2018-Apr-17 00:00N 29°37' W 095°01'0 0.0
2018-Apr-16 23:30N 29°37' W 095°01'0 0.0
2018-Apr-16 23:00N 29°37' W 095°01'0 0.0
2018-Apr-16 22:31N 29°37' W 095°01'0 0.0
2018-Apr-16 22:01N 29°37' W 095°01'0 0.0
2018-Apr-16 21:30N 29°37' W 095°01'0 0.0
2018-Apr-16 21:01N 29°37' W 095°01'0 0.0
2018-Apr-16 20:31N 29°37' W 095°01'0 0.9
2018-Apr-16 20:00N 29°37' W 095°01'3 5.6
2018-Apr-16 19:30N 29°37' W 094°58'3 5.4
2018-Apr-16 19:00N 29°40' W 094°58'3 5.7
2018-Apr-16 18:30N 29°42' W 095°00'2 4.6
2018-Apr-16 18:01N 29°44' W 095°02'3 5.6
2018-Apr-16 17:31N 29°46' W 095°04'1 1.8
2018-Apr-16 16:58N 29°46' W 095°05'0 0.1
2018-Apr-16 16:30N 29°46' W 095°05'0 0.0
2018-Apr-16 16:00N 29°46' W 095°05'0 0.0
2018-Apr-16 15:30N 29°46' W 095°05'1 1.0
2018-Apr-16 14:57N 29°46' W 095°06'0 0.3
2018-Apr-16 13:38N 29°46' W 095°06'1 4.0
2018-Apr-16 13:30N 29°45' W 095°06'1 2.5
2018-Apr-16 12:59N 29°44' W 095°07'3 4.2
2018-Apr-16 12:13N 29°45' W 095°10'0 1.3
2018-Apr-16 11:59N 29°45' W 095°10'3 6.4
2018-Apr-16 11:30N 29°44' W 095°07'1 2.4
2018-Apr-16 11:00N 29°46' W 095°06'0 0.0
2018-Apr-16 10:31N 29°46' W 095°06'0 0.0
2018-Apr-16 10:00N 29°46' W 095°06'0 0.0
2018-Apr-16 09:24N 29°46' W 095°06'0 0.0
2018-Apr-16 08:59N 29°46' W 095°06'0 0.0
2018-Apr-16 07:06N 29°46' W 095°06'0 0.0
2018-Apr-16 06:55N 29°46' W 095°06'0 0.0
2018-Apr-16 06:21N 29°46' W 095°06'0 0.0
2018-Apr-16 05:19N 29°46' W 095°06'1 0.6
2018-Apr-16 04:15N 29°45' W 095°06'2 4.8
2018-Apr-16 03:43N 29°44' W 095°03'2 6.4
2018-Apr-16 03:29N 29°44' W 095°02'3 5.6
2018-Apr-16 03:00N 29°42' W 094°59'3 6.6
2018-Apr-16 02:30N 29°39' W 094°58'3 6.1
2018-Apr-16 02:00N 29°36' W 094°57'4 7.2
2018-Apr-16 01:30N 29°33' W 094°54'3 6.8
2018-Apr-16 00:59N 29°30' W 094°52'4 7.0
2018-Apr-16 00:30N 29°27' W 094°50'5 0.4
2018-Apr-15 10:32N 29°22' W 094°47'0 4.4
2018-Apr-15 10:26N 29°22' W 094°47'1 3.0
2018-Apr-15 10:00N 29°23' W 094°49'2 3.8
2018-Apr-15 09:30N 29°25' W 094°49'2 3.5
2018-Apr-15 09:00N 29°26' W 094°50'2 4.2
2018-Apr-15 08:30N 29°28' W 094°51'2 4.6
2018-Apr-15 08:00N 29°30' W 094°52'2 4.6
2018-Apr-15 07:30N 29°32' W 094°54'2 4.6
2018-Apr-15 07:00N 29°34' W 094°55'2 4.7
2018-Apr-15 06:30N 29°36' W 094°57'2 4.9
2018-Apr-15 06:00N 29°38' W 094°58'3 5.2
2018-Apr-15 05:30N 29°41' W 094°59'3 5.2
2018-Apr-15 05:00N 29°42' W 095°01'2 4.4
2018-Apr-15 04:30N 29°44' W 095°03'2 3.7
2018-Apr-15 03:59N 29°45' W 095°04'2 3.4
2018-Apr-15 03:28N 29°45' W 095°06'0 0.0
2018-Apr-15 02:59N 29°45' W 095°06'0 0.0
2018-Apr-15 02:30N 29°45' W 095°06'1 1.7
2018-Apr-15 01:59N 29°45' W 095°06'1 1.1
2018-Apr-15 01:23N 29°46' W 095°05'0 0.0
2018-Apr-15 00:59N 29°46' W 095°05'0 0.0
2018-Apr-15 00:29N 29°46' W 095°05'0 0.0
2018-Apr-15 00:00N 29°46' W 095°05'0 0.0
2018-Apr-14 23:30N 29°46' W 095°05'0 0.1
2018-Apr-14 22:55N 29°46' W 095°05'0 0.1
2018-Apr-14 22:30N 29°46' W 095°05'0 0.0
2018-Apr-14 22:00N 29°46' W 095°05'0 0.0
2018-Apr-14 21:30N 29°46' W 095°05'0 0.0
2018-Apr-14 20:58N 29°46' W 095°05'0 0.0
2018-Apr-14 20:30N 29°46' W 095°05'0 0.0
2018-Apr-14 20:00N 29°46' W 095°05'1 2.0
2018-Apr-14 19:16N 29°45' W 095°06'0 0.0
2018-Apr-14 18:56N 29°45' W 095°06'0 0.1
2018-Apr-14 18:30N 29°45' W 095°06'1 2.4
2018-Apr-14 17:58N 29°46' W 095°07'1 0.1
2018-Apr-14 12:25N 29°46' W 095°06'3 3.8
2018-Apr-14 11:45N 29°47' W 095°04'2 6.7
2018-Apr-14 11:30N 29°46' W 095°05'0 0.5
2018-Apr-14 10:57N 29°46' W 095°05'0 0.0
2018-Apr-14 10:28N 29°46' W 095°05'0 0.0
2018-Apr-14 10:00N 29°46' W 095°05'0 0.0
2018-Apr-14 09:30N 29°46' W 095°05'0 0.0
2018-Apr-14 08:59N 29°46' W 095°05'0 0.0
2018-Apr-14 08:25N 29°46' W 095°05'0 0.0
2018-Apr-14 07:56N 29°46' W 095°05'0 0.0
2018-Apr-14 07:29N 29°46' W 095°05'0 0.0
2018-Apr-14 04:24N 29°46' W 095°05'1 0.2
2018-Apr-14 00:10N 29°45' W 095°06'1 6.1
2018-Apr-14 00:00N 29°46' W 095°04'3 7.0
2018-Apr-13 23:30N 29°44' W 095°01'3 6.7
2018-Apr-13 23:00N 29°41' W 094°59'3 5.3
2018-Apr-13 22:28N 29°41' W 094°55'1 1.6
2018-Apr-13 22:00N 29°42' W 094°55'0 0.0
2018-Apr-13 19:46N 29°42' W 094°55'0 1.1
2018-Apr-13 19:30N 29°42' W 094°55'1 1.4
2018-Apr-13 19:00N 29°42' W 094°56'0 0.1
2018-Apr-13 18:29N 29°42' W 094°56'1 1.7
2018-Apr-13 17:56N 29°42' W 094°55'2 3.7
2018-Apr-13 17:30N 29°40' W 094°56'2 4.8
2018-Apr-13 17:00N 29°41' W 094°59'3 5.8
2018-Apr-13 16:28N 29°43' W 095°01'3 6.2
2018-Apr-13 15:58N 29°45' W 095°04'1 2.9
2018-Apr-13 15:30N 29°46' W 095°06'1 1.4
2018-Apr-13 15:00N 29°46' W 095°06'0 0.0
2018-Apr-13 14:30N 29°46' W 095°06'1 1.4
2018-Apr-13 13:54N 29°46' W 095°07'0 0.7
2018-Apr-13 13:27N 29°46' W 095°07'1 2.0
2018-Apr-13 13:00N 29°45' W 095°06'1 0.2
2018-Apr-13 09:59N 29°46' W 095°05'1 0.3
2018-Apr-13 07:30N 29°46' W 095°06'0 0.0
2018-Apr-13 06:52N 29°46' W 095°06'0 0.0
2018-Apr-13 06:28N 29°46' W 095°06'0 0.0
2018-Apr-13 05:59N 29°46' W 095°06'0 0.0
2018-Apr-13 05:30N 29°46' W 095°06'0 0.0
2018-Apr-13 04:59N 29°46' W 095°06'0 0.0
2018-Apr-13 04:30N 29°46' W 095°06'0 0.0
2018-Apr-13 03:59N 29°46' W 095°06'1 1.2
2018-Apr-13 03:30N 29°45' W 095°06'3 6.2
2018-Apr-13 02:59N 29°44' W 095°09'2 3.2
2018-Apr-13 02:29N 29°45' W 095°11'1 1.2
2018-Apr-13 01:59N 29°45' W 095°10'4 5.0
2018-Apr-13 01:15N 29°45' W 095°06'0 1.3
2018-Apr-13 00:53N 29°46' W 095°06'0 0.2
2018-Apr-13 00:30N 29°46' W 095°06'1 1.2
2018-Apr-12 23:50N 29°46' W 095°05'0 0.0
2018-Apr-12 23:23N 29°46' W 095°05'1 1.5
2018-Apr-12 22:49N 29°46' W 095°06'0 0.1
2018-Apr-12 17:10N 29°46' W 095°07'0 0.0
2018-Apr-12 16:55N 29°46' W 095°07'0 0.0
2018-Apr-12 16:23N 29°46' W 095°07'0 0.0
2018-Apr-12 14:55N 29°46' W 095°07'1 2.6
2018-Apr-12 14:28N 29°46' W 095°05'0 0.5
2018-Apr-12 14:00N 29°46' W 095°05'1 1.3
2018-Apr-12 13:30N 29°45' W 095°06'0 0.8
2018-Apr-12 12:55N 29°46' W 095°06'0 0.0
2018-Apr-12 12:26N 29°46' W 095°06'0 0.0
2018-Apr-12 11:57N 29°46' W 095°06'0 0.2
2018-Apr-12 11:29N 29°46' W 095°06'0 0.0
2018-Apr-12 10:59N 29°46' W 095°06'1 1.7
2018-Apr-12 10:29N 29°46' W 095°05'0 0.3
2018-Apr-12 09:49N 29°46' W 095°05'0 0.0
2018-Apr-12 09:31N 29°46' W 095°05'0 0.0
2018-Apr-12 08:59N 29°46' W 095°05'0 0.0
2018-Apr-12 08:28N 29°46' W 095°05'0 0.0
2018-Apr-12 08:00N 29°46' W 095°05'2 4.9
2018-Apr-12 07:30N 29°44' W 095°07'3 6.1
2018-Apr-12 07:00N 29°45' W 095°11'1 1.3
2018-Apr-12 06:30N 29°45' W 095°11'0 0.0
2018-Apr-12 06:01N 29°45' W 095°11'2 4.4
2018-Apr-12 05:31N 29°44' W 095°09'3 6.0
2018-Apr-12 05:01N 29°45' W 095°06'1 2.7
2018-Apr-12 04:31N 29°46' W 095°07'0 0.4
2018-Apr-12 03:56N 29°46' W 095°07'1 2.5
2018-Apr-12 03:30N 29°45' W 095°06'1 1.5
2018-Apr-12 02:59N 29°45' W 095°06'1 1.1
2018-Apr-12 02:30N 29°46' W 095°05'0 0.0
2018-Apr-12 01:57N 29°46' W 095°05'3 6.0
2018-Apr-12 01:30N 29°44' W 095°07'3 5.6
2018-Apr-12 01:00N 29°45' W 095°10'0 0.1
2018-Apr-12 00:25N 29°45' W 095°10'0 1.1
2018-Apr-11 23:59N 29°45' W 095°10'2 3.6
2018-Apr-11 23:27N 29°44' W 095°08'2 3.9
2018-Apr-11 22:56N 29°45' W 095°06'1 1.5
2018-Apr-11 22:29N 29°46' W 095°06'1 1.3
2018-Apr-11 21:50N 29°46' W 095°07'0 0.7
2018-Apr-11 21:27N 29°46' W 095°07'0 0.1
2018-Apr-11 20:58N 29°46' W 095°07'1 2.3
2018-Apr-11 20:30N 29°45' W 095°06'3 5.1
2018-Apr-11 20:01N 29°44' W 095°03'3 5.7
2018-Apr-11 19:31N 29°42' W 095°01'3 5.7
2018-Apr-11 19:00N 29°41' W 094°58'2 4.0
2018-Apr-11 18:31N 29°41' W 094°55'1 2.2
2018-Apr-11 18:00N 29°42' W 094°56'1 1.3
2018-Apr-11 17:22N 29°43' W 094°56'1 1.8
2018-Apr-11 16:58N 29°43' W 094°57'0 0.7
2018-Apr-11 16:31N 29°43' W 094°57'1 2.1
2018-Apr-11 16:00N 29°42' W 094°56'1 1.5
2018-Apr-11 15:29N 29°41' W 094°55'1 2.9
2018-Apr-11 15:01N 29°41' W 094°57'2 4.4
2018-Apr-11 14:31N 29°41' W 094°59'2 4.9
2018-Apr-11 14:00N 29°43' W 095°01'2 4.4
2018-Apr-11 13:31N 29°44' W 095°03'2 4.6
2018-Apr-11 13:00N 29°46' W 095°05'0 0.9
2018-Apr-11 12:30N 29°45' W 095°06'3 4.8
2018-Apr-11 11:58N 29°48' W 095°04'0 0.2
2018-Apr-11 10:14N 29°47' W 095°04'1 6.2
2018-Apr-11 10:00N 29°46' W 095°05'1 1.0
2018-Apr-11 09:26N 29°46' W 095°05'0 0.0
2018-Apr-11 09:00N 29°46' W 095°05'0 0.0
2018-Apr-11 08:29N 29°46' W 095°05'0 0.0
2018-Apr-11 07:49N 29°46' W 095°05'0 0.0
2018-Apr-11 07:29N 29°46' W 095°05'0 0.0
2018-Apr-11 07:00N 29°46' W 095°05'0 0.0
2018-Apr-11 06:25N 29°46' W 095°05'0 0.0
2018-Apr-11 05:56N 29°46' W 095°05'1 1.2
2018-Apr-11 05:30N 29°46' W 095°05'1 2.4
2018-Apr-11 05:00N 29°46' W 095°06'0 0.2
2018-Apr-11 02:02N 29°45' W 095°06'1 5.5
2018-Apr-11 01:54N 29°46' W 095°05'3 6.3
2018-Apr-11 01:29N 29°44' W 095°03'3 5.6
2018-Apr-11 01:00N 29°42' W 095°01'3 5.7
2018-Apr-11 00:30N 29°41' W 094°58'2 3.4
2018-Apr-11 00:00N 29°41' W 094°56'1 2.9
2018-Apr-10 23:30N 29°42' W 094°55'1 2.9
2018-Apr-10 23:01N 29°43' W 094°57'3 4.3
2018-Apr-10 22:18N 29°46' W 094°55'0 0.0
2018-Apr-10 17:43N 29°46' W 094°55'0 0.0
2018-Apr-10 17:18N 29°46' W 094°55'0 0.0
2018-Apr-10 14:23N 29°46' W 094°55'0 1.0
2018-Apr-10 13:54N 29°45' W 094°55'1 2.4
2018-Apr-10 13:27N 29°44' W 094°56'2 3.6
2018-Apr-10 13:00N 29°43' W 094°57'1 2.3
2018-Apr-10 12:29N 29°42' W 094°56'1 1.1
2018-Apr-10 11:59N 29°42' W 094°55'2 3.2
2018-Apr-10 11:30N 29°40' W 094°56'2 3.9
2018-Apr-10 11:00N 29°41' W 094°58'2 4.2
2018-Apr-10 10:30N 29°42' W 095°00'2 4.2
2018-Apr-10 09:59N 29°44' W 095°02'3 3.9
2018-Apr-10 09:20N 29°45' W 095°04'1 3.9
2018-Apr-10 09:00N 29°45' W 095°05'0 0.2
2018-Apr-10 07:32N 29°45' W 095°06'1 4.2
2018-Apr-10 07:24N 29°45' W 095°06'1 0.3
2018-Apr-10 03:20N 29°46' W 095°05'0 0.0
2018-Apr-10 02:57N 29°46' W 095°05'0 0.0
2018-Apr-10 02:29N 29°46' W 095°05'0 0.0
2018-Apr-10 02:00N 29°46' W 095°05'0 0.0
2018-Apr-10 01:29N 29°46' W 095°05'0 0.0
2018-Apr-10 00:57N 29°46' W 095°05'0 0.0
2018-Apr-10 00:30N 29°46' W 095°05'0 0.0
2018-Apr-10 00:00N 29°46' W 095°05'0 0.3
2018-Apr-09 23:28N 29°46' W 095°05'2 2.7
2018-Apr-09 22:40N 29°48' W 095°04'1 3.6
2018-Apr-09 22:29N 29°47' W 095°04'1 2.8
2018-Apr-09 21:59N 29°46' W 095°05'  

Dump ship's entire track history